sensor_id;sensor_type;location;lat;lon;timestamp;pressure;altitude;pressure_sealevel;temperature;humidity
10716;BME280;5409;42.620;23.316;2022-11-20T00:00:18;91547.47;;;17.22;90.71
10716;BME280;5409;42.620;23.316;2022-11-20T00:02:45;91532.16;;;17.15;90.24
10716;BME280;5409;42.620;23.316;2022-11-20T00:05:12;91584.03;;;17.28;89.34
10716;BME280;5409;42.620;23.316;2022-11-20T00:07:40;91555.75;;;17.33;89.47
10716;BME280;5409;42.620;23.316;2022-11-20T00:10:07;91565.00;;;17.30;90.04
10716;BME280;5409;42.620;23.316;2022-11-20T00:12:34;91573.25;;;17.24;90.45
10716;BME280;5409;42.620;23.316;2022-11-20T00:15:01;91542.72;;;17.28;89.99
10716;BME280;5409;42.620;23.316;2022-11-20T00:17:27;91574.03;;;17.25;90.29
10716;BME280;5409;42.620;23.316;2022-11-20T00:19:54;91515.44;;;17.35;89.84
10716;BME280;5409;42.620;23.316;2022-11-20T00:22:21;91545.94;;;17.10;90.97
10716;BME280;5409;42.620;23.316;2022-11-20T00:24:49;91511.41;;;17.25;90.01
10716;BME280;5409;42.620;23.316;2022-11-20T00:27:15;91495.88;;;17.28;90.08
10716;BME280;5409;42.620;23.316;2022-11-20T00:29:42;91529.19;;;17.24;90.09
10716;BME280;5409;42.620;23.316;2022-11-20T00:32:09;91509.44;;;17.37;88.33
10716;BME280;5409;42.620;23.316;2022-11-20T00:34:35;91473.34;;;17.24;89.39
10716;BME280;5409;42.620;23.316;2022-11-20T00:37:02;91482.34;;;17.19;90.69
10716;BME280;5409;42.620;23.316;2022-11-20T00:39:29;91521.41;;;17.12;91.73
10716;BME280;5409;42.620;23.316;2022-11-20T00:41:57;91520.13;;;17.02;93.64
10716;BME280;5409;42.620;23.316;2022-11-20T00:44:23;91487.56;;;16.95;91.36
10716;BME280;5409;42.620;23.316;2022-11-20T00:46:50;91534.91;;;17.10;89.65
10716;BME280;5409;42.620;23.316;2022-11-20T00:49:17;91539.94;;;17.17;88.38
10716;BME280;5409;42.620;23.316;2022-11-20T00:51:43;91570.22;;;17.12;87.26
10716;BME280;5409;42.620;23.316;2022-11-20T00:54:10;91545.97;;;17.26;86.68
10716;BME280;5409;42.620;23.316;2022-11-20T00:56:37;91553.75;;;17.28;86.82
10716;BME280;5409;42.620;23.316;2022-11-20T00:59:05;91567.50;;;17.28;87.11
10716;BME280;5409;42.620;23.316;2022-11-20T01:01:31;91530.69;;;17.25;87.34
10716;BME280;5409;42.620;23.316;2022-11-20T01:03:59;91555.47;;;17.25;87.41
10716;BME280;5409;42.620;23.316;2022-11-20T01:06:29;91530.19;;;17.21;88.24
10716;BME280;5409;42.620;23.316;2022-11-20T01:08:57;91553.22;;;17.13;87.83
10716;BME280;5409;42.620;23.316;2022-11-20T01:11:26;91536.69;;;17.13;89.13
10716;BME280;5409;42.620;23.316;2022-11-20T01:13:54;91534.91;;;17.15;87.52
10716;BME280;5409;42.620;23.316;2022-11-20T01:16:25;91544.47;;;17.20;87.84
10716;BME280;5409;42.620;23.316;2022-11-20T01:18:54;91540.44;;;17.10;89.31
10716;BME280;5409;42.620;23.316;2022-11-20T01:21:23;91540.44;;;17.10;87.99
10716;BME280;5409;42.620;23.316;2022-11-20T01:23:53;91567.50;;;17.28;87.03
10716;BME280;5409;42.620;23.316;2022-11-20T01:26:22;91517.16;;;17.22;87.75
10716;BME280;5409;42.620;23.316;2022-11-20T01:28:49;91503.66;;;17.29;86.84
10716;BME280;5409;42.620;23.316;2022-11-20T01:31:17;91488.63;;;17.30;88.00
10716;BME280;5409;42.620;23.316;2022-11-20T01:33:47;91509.66;;;17.28;86.21
10716;BME280;5409;42.620;23.316;2022-11-20T01:36:15;91500.88;;;17.29;87.02
10716;BME280;5409;42.620;23.316;2022-11-20T01:38:42;91485.88;;;17.25;86.64
10716;BME280;5409;42.620;23.316;2022-11-20T01:41:10;91477.59;;;17.19;88.45
10716;BME280;5409;42.620;23.316;2022-11-20T01:43:59;91472.06;;;17.03;90.43
10716;BME280;5409;42.620;23.316;2022-11-20T01:46:25;91459.06;;;16.93;90.82
10716;BME280;5409;42.620;23.316;2022-11-20T01:48:57;91479.03;;;16.77;92.35
10716;BME280;5409;42.620;23.316;2022-11-20T01:51:28;91475.28;;;16.80;89.53
10716;BME280;5409;42.620;23.316;2022-11-20T01:53:58;91428.28;;;17.11;85.99
10716;BME280;5409;42.620;23.316;2022-11-20T01:56:28;91482.84;;;17.07;88.47
10716;BME280;5409;42.620;23.316;2022-11-20T01:58:59;91516.13;;;16.92;89.37
10716;BME280;5409;42.620;23.316;2022-11-20T02:01:28;91488.34;;;16.96;88.75
10716;BME280;5409;42.620;23.316;2022-11-20T02:03:56;91532.13;;;16.99;88.39
10716;BME280;5409;42.620;23.316;2022-11-20T02:06:26;91513.38;;;16.98;88.56
10716;BME280;5409;42.620;23.316;2022-11-20T02:08:54;91521.13;;;16.94;87.30
10716;BME280;5409;42.620;23.316;2022-11-20T02:11:21;91521.59;;;16.87;88.32
10716;BME280;5409;42.620;23.316;2022-11-20T02:13:48;91521.09;;;16.83;88.00
10716;BME280;5409;42.620;23.316;2022-11-20T02:16:21;91541.91;;;17.00;87.33
10716;BME280;5409;42.620;23.316;2022-11-20T02:18:49;91519.13;;;17.00;87.57
10716;BME280;5409;42.620;23.316;2022-11-20T02:21:37;91525.13;;;16.87;90.12
10716;BME280;5409;42.620;23.316;2022-11-20T02:24:12;91515.63;;;16.88;88.03
10716;BME280;5409;42.620;23.316;2022-11-20T02:26:45;91531.88;;;16.97;87.21
10716;BME280;5409;42.620;23.316;2022-11-20T02:29:15;91520.91;;;17.13;86.53
10716;BME280;5409;42.620;23.316;2022-11-20T02:31:44;91521.41;;;17.12;86.12
10716;BME280;5409;42.620;23.316;2022-11-20T02:34:11;91533.16;;;17.13;87.02
10716;BME280;5409;42.620;23.316;2022-11-20T02:36:39;91529.63;;;17.01;88.52
10716;BME280;5409;42.620;23.316;2022-11-20T02:39:11;91527.63;;;16.91;88.48
10716;BME280;5409;42.620;23.316;2022-11-20T02:41:38;91529.38;;;16.94;90.86
10716;BME280;5409;42.620;23.316;2022-11-20T02:44:05;91527.09;;;16.87;90.84
10716;BME280;5409;42.620;23.316;2022-11-20T02:46:32;91555.66;;;16.89;91.00
10716;BME280;5409;42.620;23.316;2022-11-20T02:49:00;91553.69;;;17.01;90.36
10716;BME280;5409;42.620;23.316;2022-11-20T02:51:27;91551.94;;;17.03;91.16
10716;BME280;5409;42.620;23.316;2022-11-20T02:53:54;91585.47;;;17.02;92.35
10716;BME280;5409;42.620;23.316;2022-11-20T02:56:23;91557.69;;;17.00;92.85
10716;BME280;5409;42.620;23.316;2022-11-20T02:58:50;91567.47;;;17.01;93.47
10716;BME280;5409;42.620;23.316;2022-11-20T03:01:17;91562.69;;;16.96;94.49
10716;BME280;5409;42.620;23.316;2022-11-20T03:03:43;91565.66;;;16.87;94.68
10716;BME280;5409;42.620;23.316;2022-11-20T03:06:10;91563.16;;;16.89;93.37
10716;BME280;5409;42.620;23.316;2022-11-20T03:08:37;91570.91;;;16.85;94.02
10716;BME280;5409;42.620;23.316;2022-11-20T03:11:05;91553.38;;;16.82;95.91
10716;BME280;5409;42.620;23.316;2022-11-20T03:13:34;91544.09;;;16.69;96.21
10716;BME280;5409;42.620;23.316;2022-11-20T03:16:09;91556.34;;;16.68;96.32
10716;BME280;5409;42.620;23.316;2022-11-20T03:18:35;91564.28;;;16.49;97.78
10716;BME280;5409;42.620;23.316;2022-11-20T03:21:02;91584.81;;;16.59;97.62
10716;BME280;5409;42.620;23.316;2022-11-20T03:23:31;91599.06;;;16.58;98.57
10716;BME280;5409;42.620;23.316;2022-11-20T03:26:11;91575.56;;;16.62;97.31
10716;BME280;5409;42.620;23.316;2022-11-20T03:28:39;91573.31;;;16.55;96.83
10716;BME280;5409;42.620;23.316;2022-11-20T03:31:08;91581.31;;;16.59;96.88
10716;BME280;5409;42.620;23.316;2022-11-20T03:33:35;91578.56;;;16.64;97.10
10716;BME280;5409;42.620;23.316;2022-11-20T03:36:03;91597.84;;;16.64;96.68
10716;BME280;5409;42.620;23.316;2022-11-20T03:38:30;91573.06;;;16.64;96.82
10716;BME280;5409;42.620;23.316;2022-11-20T03:41:01;91593.31;;;16.61;98.24
10716;BME280;5409;42.620;23.316;2022-11-20T03:43:29;91598.31;;;16.57;97.80
10716;BME280;5409;42.620;23.316;2022-11-20T03:45:57;91601.84;;;16.63;96.85
10716;BME280;5409;42.620;23.316;2022-11-20T03:48:24;91593.13;;;16.70;95.83
10716;BME280;5409;42.620;23.316;2022-11-20T03:50:52;91567.31;;;16.62;96.44
10716;BME280;5409;42.620;23.316;2022-11-20T03:53:19;91596.84;;;16.67;95.73
10716;BME280;5409;42.620;23.316;2022-11-20T03:55:50;91574.06;;;16.56;95.91
10716;BME280;5409;42.620;23.316;2022-11-20T03:58:17;91603.06;;;16.57;97.89
10716;BME280;5409;42.620;23.316;2022-11-20T04:00:44;91605.03;;;16.51;97.61
10716;BME280;5409;42.620;23.316;2022-11-20T04:03:12;91600.97;;;16.41;98.66
10716;BME280;5409;42.620;23.316;2022-11-20T04:05:38;91594.63;;;16.29;99.39
10716;BME280;5409;42.620;23.316;2022-11-20T04:08:05;91610.19;;;16.32;98.71
10716;BME280;5409;42.620;23.316;2022-11-20T04:10:32;91612.75;;;16.41;97.05
10716;BME280;5409;42.620;23.316;2022-11-20T04:12:58;91599.00;;;16.47;97.22
10716;BME280;5409;42.620;23.316;2022-11-20T04:15:25;91597.22;;;16.38;98.55
10716;BME280;5409;42.620;23.316;2022-11-20T04:17:52;91597.97;;;16.39;97.60
10716;BME280;5409;42.620;23.316;2022-11-20T04:20:21;91583.13;;;16.25;99.52
10716;BME280;5409;42.620;23.316;2022-11-20T04:22:48;91600.84;;;16.19;100.00
10716;BME280;5409;42.620;23.316;2022-11-20T04:25:14;91613.34;;;16.20;100.00
10716;BME280;5409;42.620;23.316;2022-11-20T04:27:41;91596.09;;;16.19;100.00
10716;BME280;5409;42.620;23.316;2022-11-20T04:30:08;91623.81;;;16.16;100.00
10716;BME280;5409;42.620;23.316;2022-11-20T04:32:35;91622.97;;;15.99;100.00
10716;BME280;5409;42.620;23.316;2022-11-20T04:35:02;91624.75;;;16.07;100.00
10716;BME280;5409;42.620;23.316;2022-11-20T04:37:30;91615.56;;;16.16;100.00
10716;BME280;5409;42.620;23.316;2022-11-20T04:39:57;91586.34;;;16.18;100.00
10716;BME280;5409;42.620;23.316;2022-11-20T04:42:23;91607.31;;;16.16;100.00
10716;BME280;5409;42.620;23.316;2022-11-20T04:44:56;91599.25;;;16.07;100.00
10716;BME280;5409;42.620;23.316;2022-11-20T04:47:23;91600.03;;;16.07;100.00
10716;BME280;5409;42.620;23.316;2022-11-20T04:49:50;91601.19;;;15.96;100.00
10716;BME280;5409;42.620;23.316;2022-11-20T04:52:17;91612.59;;;15.83;100.00
10716;BME280;5409;42.620;23.316;2022-11-20T04:54:45;91595.56;;;15.79;100.00
10716;BME280;5409;42.620;23.316;2022-11-20T04:57:13;91578.63;;;15.86;100.00
10716;BME280;5409;42.620;23.316;2022-11-20T04:59:41;91574.94;;;15.95;100.00
10716;BME280;5409;42.620;23.316;2022-11-20T05:02:07;91589.22;;;16.04;100.00
10716;BME280;5409;42.620;23.316;2022-11-20T05:04:34;91572.25;;;16.05;100.00
10716;BME280;5409;42.620;23.316;2022-11-20T05:07:01;91573.53;;;16.10;100.00
10716;BME280;5409;42.620;23.316;2022-11-20T05:09:27;91584.00;;;16.06;100.00
10716;BME280;5409;42.620;23.316;2022-11-20T05:11:55;91572.25;;;16.05;100.00
10716;BME280;5409;42.620;23.316;2022-11-20T05:14:22;91605.16;;;15.95;100.00
10716;BME280;5409;42.620;23.316;2022-11-20T05:16:49;91569.13;;;15.82;100.00
10716;BME280;5409;42.620;23.316;2022-11-20T05:19:15;91589.06;;;15.77;100.00
10716;BME280;5409;42.620;23.316;2022-11-20T05:21:42;91579.91;;;15.91;100.00
10716;BME280;5409;42.620;23.316;2022-11-20T05:24:09;91584.09;;;15.81;100.00
10716;BME280;5409;42.620;23.316;2022-11-20T05:26:36;91554.63;;;15.87;100.00
10716;BME280;5409;42.620;23.316;2022-11-20T05:29:04;91567.09;;;15.82;100.00
10716;BME280;5409;42.620;23.316;2022-11-20T05:31:30;91555.25;;;15.65;100.00
10716;BME280;5409;42.620;23.316;2022-11-20T05:33:57;91591.00;;;15.71;100.00
10716;BME280;5409;42.620;23.316;2022-11-20T05:36:24;91583.88;;;15.84;100.00
10716;BME280;5409;42.620;23.316;2022-11-20T05:38:51;91587.66;;;15.92;100.00
10716;BME280;5409;42.620;23.316;2022-11-20T05:41:19;91585.19;;;15.94;100.00
10716;BME280;5409;42.620;23.316;2022-11-20T05:43:47;91582.19;;;15.98;100.00
10716;BME280;5409;42.620;23.316;2022-11-20T05:46:17;91574.72;;;15.98;100.00
10716;BME280;5409;42.620;23.316;2022-11-20T05:48:48;91570.19;;;15.95;100.00
10716;BME280;5409;42.620;23.316;2022-11-20T05:51:18;91543.19;;;15.94;100.00
10716;BME280;5409;42.620;23.316;2022-11-20T05:53:45;91574.66;;;15.93;100.00
10716;BME280;5409;42.620;23.316;2022-11-20T05:56:14;91564.97;;;15.97;100.00
10716;BME280;5409;42.620;23.316;2022-11-20T05:58:41;91569.22;;;15.98;100.00
10716;BME280;5409;42.620;23.316;2022-11-20T06:01:11;91569.50;;;16.05;100.00
10716;BME280;5409;42.620;23.316;2022-11-20T06:03:41;91559.94;;;15.96;100.00
10716;BME280;5409;42.620;23.316;2022-11-20T06:06:09;91572.00;;;16.03;100.00
10716;BME280;5409;42.620;23.316;2022-11-20T06:08:35;91574.03;;;16.08;100.00
10716;BME280;5409;42.620;23.316;2022-11-20T06:11:06;91567.03;;;16.07;100.00
10716;BME280;5409;42.620;23.316;2022-11-20T06:13:34;91565.25;;;16.04;100.00
10716;BME280;5409;42.620;23.316;2022-11-20T06:16:01;91580.28;;;16.09;100.00
10716;BME280;5409;42.620;23.316;2022-11-20T06:18:28;91581.50;;;16.08;100.00
10716;BME280;5409;42.620;23.316;2022-11-20T06:21:04;91578.25;;;16.04;100.00
10716;BME280;5409;42.620;23.316;2022-11-20T06:23:32;91571.81;;;16.12;100.00
10716;BME280;5409;42.620;23.316;2022-11-20T06:26:01;91580.84;;;16.18;100.00
10716;BME280;5409;42.620;23.316;2022-11-20T06:28:28;91575.09;;;16.22;100.00
10716;BME280;5409;42.620;23.316;2022-11-20T06:30:55;91588.13;;;16.27;100.00
10716;BME280;5409;42.620;23.316;2022-11-20T06:33:22;91595.19;;;16.33;100.00
10716;BME280;5409;42.620;23.316;2022-11-20T06:35:48;91585.00;;;16.45;100.00
10716;BME280;5409;42.620;23.316;2022-11-20T06:38:17;91590.28;;;16.48;98.41
10716;BME280;5409;42.620;23.316;2022-11-20T06:40:43;91558.72;;;16.38;96.81
10716;BME280;5409;42.620;23.316;2022-11-20T06:43:23;91603.56;;;16.55;95.91
10716;BME280;5409;42.620;23.316;2022-11-20T06:45:52;91592.09;;;16.62;94.50
10716;BME280;5409;42.620;23.316;2022-11-20T06:48:18;91596.13;;;16.72;92.42
10716;BME280;5409;42.620;23.316;2022-11-20T06:50:45;91602.44;;;16.84;92.92
10716;BME280;5409;42.620;23.316;2022-11-20T06:53:12;91610.69;;;16.84;93.10
10716;BME280;5409;42.620;23.316;2022-11-20T06:55:43;91614.72;;;16.94;92.18
10716;BME280;5409;42.620;23.316;2022-11-20T06:58:10;91608.00;;;17.00;90.60
10716;BME280;5409;42.620;23.316;2022-11-20T07:00:37;91594.00;;;17.14;88.93
10716;BME280;5409;42.620;23.316;2022-11-20T07:03:04;91612.28;;;17.17;89.95
10716;BME280;5409;42.620;23.316;2022-11-20T07:05:31;91632.09;;;17.16;90.62
10716;BME280;5409;42.620;23.316;2022-11-20T07:07:59;91610.28;;;17.13;92.63
10716;BME280;5409;42.620;23.316;2022-11-20T07:10:26;91628.06;;;17.12;92.58
10716;BME280;5409;42.620;23.316;2022-11-20T07:12:54;91599.22;;;16.91;94.40
10716;BME280;5409;42.620;23.316;2022-11-20T07:15:22;91619.97;;;16.92;95.58
10716;BME280;5409;42.620;23.316;2022-11-20T07:17:49;91629.69;;;16.82;96.08
10716;BME280;5409;42.620;23.316;2022-11-20T07:20:16;91620.44;;;16.79;93.42
10716;BME280;5409;42.620;23.316;2022-11-20T07:22:43;91627.19;;;16.73;94.02
10716;BME280;5409;42.620;23.316;2022-11-20T07:25:11;91631.44;;;16.79;95.75
10716;BME280;5409;42.620;23.316;2022-11-20T07:27:37;91628.44;;;16.83;93.33
10716;BME280;5409;42.620;23.316;2022-11-20T07:30:06;91613.44;;;16.78;95.69
10716;BME280;5409;42.620;23.316;2022-11-20T07:32:33;91618.16;;;16.78;94.79
10716;BME280;5409;42.620;23.316;2022-11-20T07:35:00;91608.91;;;16.75;96.33
10716;BME280;5409;42.620;23.316;2022-11-20T07:37:27;91594.88;;;16.73;96.34
10716;BME280;5409;42.620;23.316;2022-11-20T07:39:53;91602.34;;;16.56;97.45
10716;BME280;5409;42.620;23.316;2022-11-20T07:42:20;91604.00;;;16.43;100.00
10716;BME280;5409;42.620;23.316;2022-11-20T07:44:47;91600.38;;;16.26;100.00
10716;BME280;5409;42.620;23.316;2022-11-20T07:47:15;91589.56;;;16.17;100.00
10716;BME280;5409;42.620;23.316;2022-11-20T07:49:41;91580.31;;;16.14;100.00
10716;BME280;5409;42.620;23.316;2022-11-20T07:52:08;91593.53;;;16.10;100.00
10716;BME280;5409;42.620;23.316;2022-11-20T07:54:35;91596.19;;;15.94;100.00
10716;BME280;5409;42.620;23.316;2022-11-20T07:57:02;91577.53;;;15.73;100.00
10716;BME280;5409;42.620;23.316;2022-11-20T07:59:28;91598.44;;;15.65;100.00
10716;BME280;5409;42.620;23.316;2022-11-20T08:01:55;91597.22;;;15.66;100.00
10716;BME280;5409;42.620;23.316;2022-11-20T08:04:23;91581.97;;;15.65;100.00
10716;BME280;5409;42.620;23.316;2022-11-20T08:06:51;91590.03;;;15.74;100.00
10716;BME280;5409;42.620;23.316;2022-11-20T08:09:18;91581.78;;;15.74;100.00
10716;BME280;5409;42.620;23.316;2022-11-20T08:11:45;91588.63;;;15.84;100.00
10716;BME280;5409;42.620;23.316;2022-11-20T08:14:31;91583.34;;;15.86;100.00
10716;BME280;5409;42.620;23.316;2022-11-20T08:16:58;91604.00;;;16.01;100.00
10716;BME280;5409;42.620;23.316;2022-11-20T08:19:26;91597.59;;;16.20;100.00
10716;BME280;5409;42.620;23.316;2022-11-20T08:21:53;91612.47;;;16.34;100.00
10716;BME280;5409;42.620;23.316;2022-11-20T08:24:21;91616.28;;;16.47;100.00
10716;BME280;5409;42.620;23.316;2022-11-20T08:26:47;91629.09;;;16.61;100.00
10716;BME280;5409;42.620;23.316;2022-11-20T08:29:14;91615.41;;;16.72;100.00
10716;BME280;5409;42.620;23.316;2022-11-20T08:31:41;91633.22;;;16.82;98.93
10716;BME280;5409;42.620;23.316;2022-11-20T08:34:08;91626.53;;;17.00;100.00
10716;BME280;5409;42.620;23.316;2022-11-20T08:36:36;91603.03;;;17.10;99.10
10716;BME280;5409;42.620;23.316;2022-11-20T08:39:03;91629.28;;;17.05;100.00
10716;BME280;5409;42.620;23.316;2022-11-20T08:41:30;91650.28;;;16.97;100.00
10716;BME280;5409;42.620;23.316;2022-11-20T08:43:59;91641.75;;;16.90;100.00
10716;BME280;5409;42.620;23.316;2022-11-20T08:46:30;91671.16;;;16.67;100.00
10716;BME280;5409;42.620;23.316;2022-11-20T08:48:58;91640.53;;;16.49;100.00
10716;BME280;5409;42.620;23.316;2022-11-20T08:51:25;91661.66;;;16.63;100.00
10716;BME280;5409;42.620;23.316;2022-11-20T08:53:53;91663.00;;;16.42;100.00
10716;BME280;5409;42.620;23.316;2022-11-20T08:56:20;91655.25;;;16.40;100.00
10716;BME280;5409;42.620;23.316;2022-11-20T08:58:46;91646.09;;;16.23;100.00
10716;BME280;5409;42.620;23.316;2022-11-20T09:01:13;91632.19;;;15.96;100.00
10716;BME280;5409;42.620;23.316;2022-11-20T09:03:40;91651.50;;;15.76;100.00
10716;BME280;5409;42.620;23.316;2022-11-20T09:06:07;91667.03;;;15.54;100.00
10716;BME280;5409;42.620;23.316;2022-11-20T09:08:34;91662.91;;;15.18;100.00
10716;BME280;5409;42.620;23.316;2022-11-20T09:11:03;91629.25;;;14.78;100.00
10716;BME280;5409;42.620;23.316;2022-11-20T09:13:31;91657.59;;;14.50;100.00
10716;BME280;5409;42.620;23.316;2022-11-20T09:16:00;91636.53;;;14.41;100.00
10716;BME280;5409;42.620;23.316;2022-11-20T09:18:27;91638.31;;;14.24;100.00
10716;BME280;5409;42.620;23.316;2022-11-20T09:20:57;91666.13;;;14.03;100.00
10716;BME280;5409;42.620;23.316;2022-11-20T09:23:24;91651.59;;;13.82;100.00
10716;BME280;5409;42.620;23.316;2022-11-20T09:25:51;91640.44;;;13.86;100.00
10716;BME280;5409;42.620;23.316;2022-11-20T09:28:21;91646.09;;;13.97;100.00
10716;BME280;5409;42.620;23.316;2022-11-20T09:30:48;91625.09;;;14.08;100.00
10716;BME280;5409;42.620;23.316;2022-11-20T09:33:15;91641.78;;;14.25;100.00
10716;BME280;5409;42.620;23.316;2022-11-20T09:35:42;91623.81;;;14.38;100.00
10716;BME280;5409;42.620;23.316;2022-11-20T09:38:10;91605.56;;;14.35;100.00
10716;BME280;5409;42.620;23.316;2022-11-20T09:40:39;91607.28;;;14.53;100.00
10716;BME280;5409;42.620;23.316;2022-11-20T09:43:12;91619.81;;;14.59;100.00
10716;BME280;5409;42.620;23.316;2022-11-20T09:45:53;91617.34;;;14.61;100.00
10716;BME280;5409;42.620;23.316;2022-11-20T09:48:30;91610.75;;;14.53;100.00
10716;BME280;5409;42.620;23.316;2022-11-20T09:51:06;91612.81;;;14.58;100.00
10716;BME280;5409;42.620;23.316;2022-11-20T09:53:45;91606.44;;;14.47;100.00
10716;BME280;5409;42.620;23.316;2022-11-20T09:56:13;91605.81;;;14.57;100.00
10716;BME280;5409;42.620;23.316;2022-11-20T09:58:42;91603.97;;;14.69;100.00
10716;BME280;5409;42.620;23.316;2022-11-20T10:01:15;91605.66;;;14.86;100.00
10716;BME280;5409;42.620;23.316;2022-11-20T10:03:50;91594.66;;;15.06;100.00
10716;BME280;5409;42.620;23.316;2022-11-20T10:06:24;91598.63;;;15.05;100.00
10716;BME280;5409;42.620;23.316;2022-11-20T10:09:01;91600.41;;;15.08;100.00
10716;BME280;5409;42.620;23.316;2022-11-20T10:11:41;91590.44;;;15.10;100.00
10716;BME280;5409;42.620;23.316;2022-11-20T10:14:18;91578.34;;;15.22;100.00
10716;BME280;5409;42.620;23.316;2022-11-20T10:16:58;91594.03;;;15.22;100.00
10716;BME280;5409;42.620;23.316;2022-11-20T10:19:44;91587.56;;;15.45;100.00
10716;BME280;5409;42.620;23.316;2022-11-20T10:22:24;91594.34;;;15.49;100.00
10716;BME280;5409;42.620;23.316;2022-11-20T10:24:56;91560.44;;;15.27;100.00
10716;BME280;5409;42.620;23.316;2022-11-20T10:27:54;91585.59;;;15.51;100.00
10716;BME280;5409;42.620;23.316;2022-11-20T10:30:25;91590.81;;;15.49;100.00
10716;BME280;5409;42.620;23.316;2022-11-20T10:32:57;91595.06;;;15.50;100.00
10716;BME280;5409;42.620;23.316;2022-11-20T10:35:32;91595.13;;;15.55;100.00
10716;BME280;5409;42.620;23.316;2022-11-20T10:38:04;91593.31;;;15.78;100.00
10716;BME280;5409;42.620;23.316;2022-11-20T10:40:37;91598.81;;;15.78;100.00
10716;BME280;5409;42.620;23.316;2022-11-20T10:43:09;91595.03;;;15.44;100.00
10716;BME280;5409;42.620;23.316;2022-11-20T10:45:45;91606.94;;;15.61;100.00
10716;BME280;5409;42.620;23.316;2022-11-20T10:48:22;91616.97;;;15.70;100.00
10716;BME280;5409;42.620;23.316;2022-11-20T10:51:03;91622.78;;;15.77;100.00
10716;BME280;5409;42.620;23.316;2022-11-20T10:53:46;91646.28;;;15.53;100.00
10716;BME280;5409;42.620;23.316;2022-11-20T10:56:19;91634.25;;;15.45;100.00
10716;BME280;5409;42.620;23.316;2022-11-20T10:59:07;91632.38;;;15.31;100.00
10716;BME280;5409;42.620;23.316;2022-11-20T11:01:40;91625.91;;;15.14;100.00
10716;BME280;5409;42.620;23.316;2022-11-20T11:04:28;91634.94;;;14.94;100.00
10716;BME280;5409;42.620;23.316;2022-11-20T11:07:01;91650.94;;;14.76;100.00
10716;BME280;5409;42.620;23.316;2022-11-20T11:09:33;91659.56;;;14.49;100.00
10716;BME280;5409;42.620;23.316;2022-11-20T11:12:01;91696.81;;;14.21;100.00
10716;BME280;5409;42.620;23.316;2022-11-20T11:14:27;91668.56;;;14.15;100.00
10716;BME280;5409;42.620;23.316;2022-11-20T11:16:56;91698.56;;;13.75;100.00
10716;BME280;5409;42.620;23.316;2022-11-20T11:19:24;91679.03;;;13.39;100.00
10716;BME280;5409;42.620;23.316;2022-11-20T11:21:52;91722.78;;;13.10;100.00
10716;BME280;5409;42.620;23.316;2022-11-20T11:24:21;91667.28;;;12.72;100.00
10716;BME280;5409;42.620;23.316;2022-11-20T11:26:57;91645.66;;;12.36;100.00
10716;BME280;5409;42.620;23.316;2022-11-20T11:29:25;91682.09;;;12.10;100.00
10716;BME280;5409;42.620;23.316;2022-11-20T11:32:03;91676.03;;;11.82;100.00
10716;BME280;5409;42.620;23.316;2022-11-20T11:34:32;91668.22;;;11.66;100.00
10716;BME280;5409;42.620;23.316;2022-11-20T11:37:00;91675.50;;;11.51;100.00
10716;BME280;5409;42.620;23.316;2022-11-20T11:39:30;91689.34;;;11.30;100.00
10716;BME280;5409;42.620;23.316;2022-11-20T11:41:58;91677.88;;;11.26;100.00
10716;BME280;5409;42.620;23.316;2022-11-20T11:44:28;91675.44;;;11.19;100.00
10716;BME280;5409;42.620;23.316;2022-11-20T11:47:21;91652.72;;;11.13;100.00
10716;BME280;5409;42.620;23.316;2022-11-20T11:50:02;91658.34;;;11.10;100.00
10716;BME280;5409;42.620;23.316;2022-11-20T11:52:30;91654.09;;;11.09;100.00
10716;BME280;5409;42.620;23.316;2022-11-20T11:54:59;91643.66;;;11.07;100.00
10716;BME280;5409;42.620;23.316;2022-11-20T11:57:32;91647.72;;;11.12;100.00
10716;BME280;5409;42.620;23.316;2022-11-20T12:00:08;91620.59;;;11.17;100.00
10716;BME280;5409;42.620;23.316;2022-11-20T12:02:38;91628.00;;;11.17;100.00
10716;BME280;5409;42.620;23.316;2022-11-20T12:05:20;91618.66;;;11.09;100.00
10716;BME280;5409;42.620;23.316;2022-11-20T12:07:52;91643.75;;;11.22;100.00
10716;BME280;5409;42.620;23.316;2022-11-20T12:10:22;91666.50;;;11.19;100.00
10716;BME280;5409;42.620;23.316;2022-11-20T12:12:55;91664.25;;;11.17;100.00
10716;BME280;5409;42.620;23.316;2022-11-20T12:15:30;91673.78;;;11.13;100.00
10716;BME280;5409;42.620;23.316;2022-11-20T12:17:57;91650.00;;;11.04;100.00
10716;BME280;5409;42.620;23.316;2022-11-20T12:20:28;91652.13;;;11.00;100.00
10716;BME280;5409;42.620;23.316;2022-11-20T12:23:02;91647.28;;;10.95;100.00
10716;BME280;5409;42.620;23.316;2022-11-20T12:25:34;91652.78;;;10.86;100.00
10716;BME280;5409;42.620;23.316;2022-11-20T12:28:34;91642.19;;;10.79;100.00
10716;BME280;5409;42.620;23.316;2022-11-20T12:31:25;91661.88;;;10.74;100.00
10716;BME280;5409;42.620;23.316;2022-11-20T12:34:09;91663.09;;;10.73;100.00
10716;BME280;5409;42.620;23.316;2022-11-20T12:36:47;91625.38;;;10.72;100.00
10716;BME280;5409;42.620;23.316;2022-11-20T12:39:35;91569.78;;;10.78;100.00
10716;BME280;5409;42.620;23.316;2022-11-20T12:42:22;91548.41;;;10.77;100.00
10716;BME280;5409;42.620;23.316;2022-11-20T12:45:28;91524.38;;;10.75;100.00
10716;BME280;5409;42.620;23.316;2022-11-20T12:48:15;91508.44;;;10.83;100.00
10716;BME280;5409;42.620;23.316;2022-11-20T12:50:51;91484.66;;;10.83;100.00
10716;BME280;5409;42.620;23.316;2022-11-20T12:53:33;91493.06;;;11.03;100.00
10716;BME280;5409;42.620;23.316;2022-11-20T12:56:15;91475.47;;;11.36;100.00
10716;BME280;5409;42.620;23.316;2022-11-20T12:58:56;91457.41;;;11.62;100.00
10716;BME280;5409;42.620;23.316;2022-11-20T13:01:32;91471.41;;;12.17;100.00
10716;BME280;5409;42.620;23.316;2022-11-20T13:04:18;91454.72;;;12.44;100.00
10716;BME280;5409;42.620;23.316;2022-11-20T13:06:50;91492.84;;;12.76;100.00
10716;BME280;5409;42.620;23.316;2022-11-20T13:09:20;91504.41;;;12.85;100.00